createdAt,value
2023-03-19T00:00:46.694Z,687.00
2023-03-19T00:01:46.868Z,687.00
2023-03-19T00:02:46.793Z,687.00
2023-03-19T00:03:46.810Z,688.00
2023-03-19T00:04:46.825Z,689.00
2023-03-19T00:05:46.833Z,687.00
2023-03-19T00:06:46.895Z,688.00
2023-03-19T00:07:45.917Z,690.00
2023-03-19T00:08:46.971Z,687.00
2023-03-19T00:09:47.001Z,686.00
2023-03-19T00:10:47.005Z,687.00
2023-03-19T00:11:47.038Z,684.00
2023-03-19T00:12:47.078Z,682.00
2023-03-19T00:13:47.137Z,681.00
2023-03-19T00:14:46.163Z,682.00
2023-03-19T00:15:47.252Z,681.00
2023-03-19T00:16:47.292Z,684.00
2023-03-19T00:17:47.241Z,685.00
2023-03-19T00:18:47.292Z,684.00
2023-03-19T00:19:47.316Z,685.00
2023-03-19T00:20:47.341Z,685.00
2023-03-19T00:21:47.664Z,684.00
2023-03-19T00:22:47.425Z,686.00
2023-03-19T00:23:47.473Z,687.00
2023-03-19T00:24:47.515Z,686.00
2023-03-19T00:25:47.530Z,687.00
2023-03-19T00:26:47.636Z,689.00
2023-03-19T00:27:47.638Z,691.00
2023-03-19T00:28:47.653Z,691.00
2023-03-19T00:29:47.721Z,689.00
2023-03-19T00:30:46.818Z,692.00
2023-03-19T00:31:47.773Z,690.00
2023-03-19T00:32:47.837Z,690.00
2023-03-19T00:33:46.838Z,690.00
2023-03-19T00:34:46.849Z,689.00
2023-03-19T00:35:47.896Z,687.00
2023-03-19T00:36:47.962Z,688.00
2023-03-19T00:37:46.971Z,689.00
2023-03-19T00:38:48.009Z,691.00
2023-03-19T00:39:48.044Z,691.00
2023-03-19T00:40:48.088Z,689.00
2023-03-19T00:41:47.106Z,690.00
2023-03-19T00:42:48.149Z,691.00
2023-03-19T00:43:48.172Z,690.00
2023-03-19T00:44:48.227Z,691.00
2023-03-19T00:45:48.346Z,692.00
2023-03-19T00:46:48.303Z,692.00
2023-03-19T00:47:47.324Z,691.00
2023-03-19T00:48:48.373Z,692.00
2023-03-19T00:49:48.411Z,692.00
2023-03-19T00:50:47.465Z,690.00
2023-03-19T00:51:48.490Z,689.00
2023-03-19T00:52:48.519Z,689.00
2023-03-19T00:53:48.585Z,689.00
2023-03-19T00:54:48.625Z,692.00
2023-03-19T00:55:48.635Z,693.00
2023-03-19T00:56:47.670Z,689.00
2023-03-19T00:57:48.704Z,690.00
2023-03-19T00:58:48.751Z,690.00
2023-03-19T00:59:48.818Z,693.00
2023-03-19T01:00:48.846Z,694.00
2023-03-19T01:01:48.999Z,696.00
2023-03-19T01:02:48.907Z,695.00
2023-03-19T01:03:48.944Z,695.00
2023-03-19T01:04:49.045Z,693.00
2023-03-19T01:05:52.011Z,692.00
2023-03-19T01:06:47.985Z,692.00
2023-03-19T01:07:48.985Z,692.00
2023-03-19T01:08:48.989Z,689.00
2023-03-19T01:09:48.988Z,689.00
2023-03-19T01:10:48.961Z,688.00
2023-03-19T01:11:48.959Z,688.00
2023-03-19T01:12:47.955Z,690.00
2023-03-19T01:13:48.936Z,691.00
2023-03-19T01:14:48.938Z,693.00
2023-03-19T01:15:48.921Z,696.00
2023-03-19T01:16:48.933Z,695.00
2023-03-19T01:17:48.950Z,694.00
2023-03-19T01:18:48.893Z,694.00
2023-03-19T01:19:48.897Z,693.00
2023-03-19T01:20:48.886Z,691.00
2023-03-19T01:21:47.880Z,691.00
2023-03-19T01:22:48.877Z,691.00
2023-03-19T01:23:47.950Z,694.00
2023-03-19T01:24:48.850Z,695.00
2023-03-19T01:25:48.849Z,691.00
2023-03-19T01:26:48.844Z,690.00
2023-03-19T01:27:48.841Z,690.00
2023-03-19T01:28:48.849Z,691.00
2023-03-19T01:29:48.809Z,693.00
2023-03-19T01:30:48.865Z,696.00
2023-03-19T01:31:47.801Z,697.00
2023-03-19T01:32:48.875Z,697.00
2023-03-19T01:33:48.899Z,698.00
2023-03-19T01:34:48.796Z,696.00
2023-03-19T01:35:48.812Z,697.00
2023-03-19T01:36:48.774Z,695.00
2023-03-19T01:37:47.766Z,694.00
2023-03-19T01:38:48.777Z,689.00
2023-03-19T01:39:48.764Z,689.00
2023-03-19T01:40:48.768Z,690.00
2023-03-19T01:41:48.743Z,691.00
2023-03-19T01:42:47.782Z,689.00
2023-03-19T01:43:47.824Z,689.00
2023-03-19T01:44:48.854Z,689.00
2023-03-19T01:45:51.187Z,688.00
2023-03-19T01:46:49.009Z,686.00
2023-03-19T01:47:47.885Z,689.00
2023-03-19T01:48:47.961Z,691.00
2023-03-19T01:49:48.887Z,690.00
2023-03-19T01:50:48.858Z,690.00
2023-03-19T01:51:48.888Z,692.00
2023-03-19T01:52:48.849Z,691.00
2023-03-19T01:53:48.835Z,692.00
2023-03-19T01:54:48.834Z,690.00
2023-03-19T01:55:47.839Z,691.00
2023-03-19T01:56:47.811Z,693.00
2023-03-19T01:57:48.809Z,695.00
2023-03-19T01:58:48.824Z,695.00
2023-03-19T01:59:48.817Z,694.00
2023-03-19T02:00:47.785Z,696.00
2023-03-19T02:01:48.864Z,698.00
2023-03-19T02:02:48.776Z,698.00
2023-03-19T02:03:48.780Z,697.00
2023-03-19T02:04:48.865Z,696.00
2023-03-19T02:05:48.778Z,697.00
2023-03-19T02:06:48.741Z,698.00
2023-03-19T02:07:48.740Z,695.00
2023-03-19T02:08:48.728Z,695.00
2023-03-19T02:09:48.744Z,696.00
2023-03-19T02:10:48.738Z,695.00
2023-03-19T02:11:48.712Z,698.00
2023-03-19T02:12:47.736Z,700.00
2023-03-19T02:13:48.693Z,702.00
2023-03-19T02:14:48.699Z,701.00
2023-03-19T02:15:48.723Z,704.00
2023-03-19T02:16:48.746Z,705.00
2023-03-19T02:17:47.704Z,702.00
2023-03-19T02:18:48.755Z,701.00
2023-03-19T02:19:48.779Z,704.00
2023-03-19T02:20:48.787Z,702.00
2023-03-19T02:21:48.869Z,701.00
2023-03-19T02:22:48.904Z,702.00
2023-03-19T02:23:48.912Z,701.00
2023-03-19T02:24:48.959Z,702.00
2023-03-19T02:25:48.943Z,702.00
2023-03-19T02:26:47.969Z,701.00
2023-03-19T02:27:49.034Z,701.00
2023-03-19T02:28:49.107Z,703.00
2023-03-19T02:29:49.525Z,701.00
2023-03-19T02:30:48.088Z,704.00
2023-03-19T02:31:49.228Z,701.00
2023-03-19T02:32:49.185Z,702.00
2023-03-19T02:33:49.169Z,705.00
2023-03-19T02:34:49.212Z,703.00
2023-03-19T02:35:49.310Z,704.00
2023-03-19T02:36:49.252Z,706.00
2023-03-19T02:37:48.425Z,707.00
2023-03-19T02:38:49.326Z,705.00
2023-03-19T02:39:49.359Z,706.00
2023-03-19T02:40:48.382Z,705.00
2023-03-19T02:41:49.538Z,706.00
2023-03-19T02:42:49.440Z,707.00
2023-03-19T02:43:49.504Z,706.00
2023-03-19T02:44:49.511Z,708.00
2023-03-19T02:45:49.531Z,712.00
2023-03-19T02:46:49.606Z,712.00
2023-03-19T02:47:48.589Z,710.00
2023-03-19T02:48:49.648Z,710.00
2023-03-19T02:49:48.617Z,708.00
2023-03-19T02:50:48.665Z,706.00
2023-03-19T02:51:49.810Z,705.00
2023-03-19T02:52:49.679Z,708.00
2023-03-19T02:53:49.722Z,708.00
2023-03-19T02:54:49.699Z,707.00
2023-03-19T02:55:49.713Z,705.00
2023-03-19T02:56:49.715Z,703.00
2023-03-19T02:57:49.744Z,706.00
2023-03-19T02:58:49.783Z,706.00
2023-03-19T02:59:49.786Z,704.00
2023-03-19T03:00:49.880Z,705.00
2023-03-19T03:01:49.866Z,706.00
2023-03-19T03:02:49.867Z,706.00
2023-03-19T03:03:49.895Z,706.00
2023-03-19T03:04:48.903Z,705.00
2023-03-19T03:05:49.913Z,706.00
2023-03-19T03:06:49.948Z,705.00
2023-03-19T03:07:49.957Z,705.00
2023-03-19T03:08:48.972Z,705.00
2023-03-19T03:09:50.039Z,704.00
2023-03-19T03:10:49.026Z,702.00
2023-03-19T03:11:50.043Z,707.00
2023-03-19T03:12:49.058Z,706.00
2023-03-19T03:13:50.061Z,703.00
2023-03-19T03:14:50.107Z,702.00
2023-03-19T03:15:50.098Z,704.00
2023-03-19T03:16:50.130Z,706.00
2023-03-19T03:17:49.144Z,704.00
2023-03-19T03:18:50.207Z,703.00
2023-03-19T03:19:50.163Z,703.00
2023-03-19T03:20:50.172Z,705.00
2023-03-19T03:21:49.156Z,707.00
2023-03-19T03:22:50.181Z,706.00
2023-03-19T03:23:50.184Z,706.00
2023-03-19T03:24:50.196Z,704.00
2023-03-19T03:25:50.224Z,706.00
2023-03-19T03:26:50.216Z,704.00
2023-03-19T03:27:49.236Z,702.00
2023-03-19T03:28:49.242Z,701.00
2023-03-19T03:29:50.266Z,702.00
2023-03-19T03:30:49.277Z,703.00
2023-03-19T03:31:50.397Z,704.00
2023-03-19T03:32:49.279Z,707.00
2023-03-19T03:33:50.282Z,710.00
2023-03-19T03:34:49.300Z,709.00
2023-03-19T03:35:50.339Z,710.00
2023-03-19T03:36:50.302Z,710.00
2023-03-19T03:37:50.366Z,707.00
2023-03-19T03:38:50.356Z,705.00
2023-03-19T03:39:50.356Z,706.00
2023-03-19T03:40:50.345Z,705.00
2023-03-19T03:41:50.360Z,707.00
2023-03-19T03:42:50.351Z,705.00
2023-03-19T03:43:49.327Z,705.00
2023-03-19T03:44:49.343Z,708.00
2023-03-19T03:45:50.387Z,707.00
2023-03-19T03:46:50.332Z,706.00
2023-03-19T03:47:49.344Z,704.00
2023-03-19T03:48:50.353Z,704.00
2023-03-19T03:49:49.381Z,703.00
2023-03-19T03:50:50.368Z,701.00
2023-03-19T03:51:50.359Z,698.00
2023-03-19T03:52:50.371Z,699.00
2023-03-19T03:53:50.389Z,698.00
2023-03-19T03:54:50.408Z,698.00
2023-03-19T03:55:50.398Z,701.00
2023-03-19T03:56:50.383Z,704.00
2023-03-19T03:57:49.431Z,703.00
2023-03-19T03:58:50.413Z,704.00
2023-03-19T03:59:50.442Z,704.00
2023-03-19T04:00:50.447Z,705.00
2023-03-19T04:01:50.481Z,706.00
2023-03-19T04:02:50.503Z,707.00
2023-03-19T04:03:50.480Z,708.00
2023-03-19T04:04:50.506Z,707.00
2023-03-19T04:05:50.503Z,708.00
2023-03-19T04:06:50.531Z,709.00
2023-03-19T04:07:50.527Z,711.00
2023-03-19T04:08:50.699Z,712.00
2023-03-19T04:09:50.572Z,711.00
2023-03-19T04:10:50.554Z,708.00
2023-03-19T04:11:51.456Z,709.00
2023-03-19T04:12:49.618Z,708.00
2023-03-19T04:13:50.655Z,708.00
2023-03-19T04:14:50.648Z,707.00
2023-03-19T04:15:50.632Z,704.00
2023-03-19T04:16:50.691Z,701.00
2023-03-19T04:17:50.643Z,700.00
2023-03-19T04:18:50.653Z,700.00
2023-03-19T04:19:50.658Z,698.00
2023-03-19T04:20:49.653Z,699.00
2023-03-19T04:21:50.647Z,700.00
2023-03-19T04:22:49.646Z,702.00
2023-03-19T04:23:50.645Z,705.00
2023-03-19T04:24:50.651Z,707.00
2023-03-19T04:25:50.661Z,707.00
2023-03-19T04:26:49.685Z,707.00
2023-03-19T04:27:49.663Z,706.00
2023-03-19T04:28:50.651Z,704.00
2023-03-19T04:29:49.685Z,706.00
2023-03-19T04:30:50.657Z,706.00
2023-03-19T04:31:49.646Z,706.00
2023-03-19T04:32:50.731Z,706.00
2023-03-19T04:33:50.660Z,707.00
2023-03-19T04:34:50.668Z,708.00
2023-03-19T04:35:50.704Z,711.00
2023-03-19T04:36:50.684Z,711.00
2023-03-19T04:37:49.680Z,711.00
2023-03-19T04:38:50.676Z,710.00
2023-03-19T04:39:50.726Z,711.00
2023-03-19T04:40:50.694Z,712.00
2023-03-19T04:41:50.677Z,709.00
2023-03-19T04:42:50.698Z,708.00
2023-03-19T04:43:49.699Z,708.00
2023-03-19T04:44:50.685Z,708.00
2023-03-19T04:45:49.751Z,707.00
2023-03-19T04:46:50.662Z,706.00
2023-03-19T04:47:50.672Z,706.00
2023-03-19T04:48:50.668Z,709.00
2023-03-19T04:49:49.654Z,710.00
2023-03-19T04:50:50.666Z,708.00
2023-03-19T04:51:50.644Z,706.00
2023-03-19T04:52:50.646Z,705.00
2023-03-19T04:53:49.643Z,704.00
2023-03-19T04:54:50.661Z,705.00
2023-03-19T04:55:49.644Z,706.00
2023-03-19T04:56:49.633Z,707.00
2023-03-19T04:57:49.662Z,708.00
2023-03-19T04:58:50.612Z,709.00
2023-03-19T04:59:50.616Z,707.00
2023-03-19T05:00:50.647Z,707.00
2023-03-19T05:01:49.698Z,709.00
2023-03-19T05:02:50.612Z,710.00
2023-03-19T05:03:49.636Z,708.00
2023-03-19T05:04:50.586Z,708.00
2023-03-19T05:05:49.583Z,708.00
2023-03-19T05:06:50.599Z,707.00
2023-03-19T05:07:50.577Z,707.00
2023-03-19T05:08:50.573Z,707.00
2023-03-19T05:09:50.573Z,708.00
2023-03-19T05:10:49.602Z,710.00
2023-03-19T05:11:49.578Z,711.00
2023-03-19T05:12:50.564Z,710.00
2023-03-19T05:13:50.560Z,710.00
2023-03-19T05:14:50.568Z,711.00
2023-03-19T05:15:49.618Z,711.00
2023-03-19T05:16:49.566Z,709.00
2023-03-19T05:17:50.577Z,709.00
2023-03-19T05:18:50.554Z,706.00
2023-03-19T05:19:50.557Z,703.00
2023-03-19T05:20:50.546Z,702.00
2023-03-19T05:21:50.577Z,699.00
2023-03-19T05:22:50.603Z,699.00
2023-03-19T05:23:50.573Z,697.00
2023-03-19T05:24:50.546Z,699.00
2023-03-19T05:25:50.554Z,696.00
2023-03-19T05:26:50.558Z,697.00
2023-03-19T05:27:50.530Z,700.00
2023-03-19T05:28:50.522Z,702.00
2023-03-19T05:29:50.596Z,701.00
2023-03-19T05:30:50.545Z,706.00
2023-03-19T05:31:50.546Z,709.00
2023-03-19T05:32:50.569Z,710.00
2023-03-19T05:33:50.551Z,708.00
2023-03-19T05:34:49.537Z,705.00
2023-03-19T05:35:50.770Z,705.00
2023-03-19T05:36:50.538Z,706.00
2023-03-19T05:37:50.527Z,708.00
2023-03-19T05:38:51.422Z,709.00
2023-03-19T05:39:50.533Z,708.00
2023-03-19T05:40:50.566Z,706.00
2023-03-19T05:41:50.566Z,705.00
2023-03-19T05:42:50.551Z,706.00
2023-03-19T05:43:50.537Z,705.00
2023-03-19T05:44:49.544Z,704.00
2023-03-19T05:45:49.571Z,706.00
2023-03-19T05:46:50.624Z,706.00
2023-03-19T05:47:49.566Z,708.00
2023-03-19T05:48:49.566Z,705.00
2023-03-19T05:49:50.600Z,704.00
2023-03-19T05:50:49.578Z,705.00
2023-03-19T05:51:50.622Z,703.00
2023-03-19T05:52:50.575Z,703.00
2023-03-19T05:53:50.593Z,703.00
2023-03-19T05:54:50.596Z,703.00
2023-03-19T05:55:50.577Z,703.00
2023-03-19T05:56:50.609Z,703.00
2023-03-19T05:57:50.610Z,705.00
2023-03-19T05:58:50.610Z,707.00
2023-03-19T05:59:50.628Z,708.00
2023-03-19T06:00:50.618Z,704.00
2023-03-19T06:01:50.736Z,705.00
2023-03-19T06:02:50.636Z,705.00
2023-03-19T06:03:49.667Z,705.00
2023-03-19T06:04:50.631Z,705.00
2023-03-19T06:05:50.709Z,704.00
2023-03-19T06:06:50.960Z,705.00
2023-03-19T06:07:50.679Z,704.00
2023-03-19T06:08:50.654Z,704.00
2023-03-19T06:09:50.658Z,703.00
2023-03-19T06:10:50.669Z,704.00
2023-03-19T06:11:50.675Z,706.00
2023-03-19T06:12:50.660Z,707.00
2023-03-19T06:13:50.661Z,705.00
2023-03-19T06:14:50.696Z,706.00
2023-03-19T06:15:50.723Z,705.00
2023-03-19T06:16:50.716Z,709.00
2023-03-19T06:17:50.703Z,709.00
2023-03-19T06:18:50.700Z,708.00
2023-03-19T06:19:50.702Z,707.00
2023-03-19T06:20:50.707Z,708.00
2023-03-19T06:21:50.752Z,707.00
2023-03-19T06:22:50.718Z,706.00
2023-03-19T06:23:50.724Z,704.00
2023-03-19T06:24:50.734Z,705.00
2023-03-19T06:25:50.724Z,708.00
2023-03-19T06:26:50.756Z,709.00
2023-03-19T06:27:50.832Z,705.00
2023-03-19T06:28:50.752Z,707.00
2023-03-19T06:29:49.762Z,707.00
2023-03-19T06:30:50.750Z,708.00
2023-03-19T06:31:50.927Z,708.00
2023-03-19T06:32:50.840Z,708.00
2023-03-19T06:33:50.809Z,708.00
2023-03-19T06:34:50.796Z,708.00
2023-03-19T06:35:50.887Z,709.00
2023-03-19T06:36:50.810Z,709.00
2023-03-19T06:37:50.848Z,711.00
2023-03-19T06:38:50.810Z,715.00
2023-03-19T06:39:51.014Z,716.00
2023-03-19T06:40:50.828Z,715.00
2023-03-19T06:41:50.940Z,711.00
2023-03-19T06:42:50.858Z,711.00
2023-03-19T06:43:50.859Z,712.00
2023-03-19T06:44:52.291Z,714.00
2023-03-19T06:45:50.896Z,715.00
2023-03-19T06:46:50.856Z,715.00
2023-03-19T06:47:53.378Z,714.00
2023-03-19T06:48:50.829Z,715.00
2023-03-19T06:49:50.826Z,714.00
2023-03-19T06:50:50.825Z,713.00
2023-03-19T06:51:50.857Z,712.00
2023-03-19T06:52:50.809Z,712.00
2023-03-19T06:53:50.826Z,713.00
2023-03-19T06:54:50.785Z,715.00
2023-03-19T06:55:50.772Z,713.00
2023-03-19T06:56:50.807Z,713.00
2023-03-19T06:57:50.771Z,711.00
2023-03-19T06:58:50.768Z,712.00
2023-03-19T06:59:49.739Z,711.00
2023-03-19T07:00:49.800Z,710.00
2023-03-19T07:01:50.745Z,709.00
2023-03-19T07:02:49.732Z,710.00
2023-03-19T07:03:50.736Z,708.00
2023-03-19T07:04:49.712Z,709.00
2023-03-19T07:05:50.715Z,706.00
2023-03-19T07:06:50.701Z,706.00
2023-03-19T07:07:50.707Z,705.00
2023-03-19T07:08:50.668Z,705.00
2023-03-19T07:09:49.696Z,706.00
2023-03-19T07:10:50.661Z,706.00
2023-03-19T07:11:49.645Z,705.00
2023-03-19T07:12:50.641Z,705.00
2023-03-19T07:13:50.645Z,703.00
2023-03-19T07:14:49.634Z,704.00
2023-03-19T07:15:50.618Z,703.00
2023-03-19T07:16:50.650Z,706.00
2023-03-19T07:17:50.624Z,706.00
2023-03-19T07:18:49.593Z,706.00
2023-03-19T07:19:50.621Z,708.00
2023-03-19T07:20:49.603Z,707.00
2023-03-19T07:21:49.567Z,708.00
2023-03-19T07:22:49.604Z,709.00
2023-03-19T07:23:49.567Z,709.00
2023-03-19T07:24:50.628Z,711.00
2023-03-19T07:25:49.568Z,709.00
2023-03-19T07:26:50.586Z,707.00
2023-03-19T07:27:50.583Z,705.00
2023-03-19T07:28:50.569Z,704.00
2023-03-19T07:29:50.580Z,703.00
2023-03-19T07:30:49.510Z,704.00
2023-03-19T07:31:50.559Z,705.00
2023-03-19T07:32:50.557Z,708.00
2023-03-19T07:33:50.489Z,707.00
2023-03-19T07:34:50.480Z,704.00
2023-03-19T07:35:50.568Z,705.00
2023-03-19T07:36:50.472Z,705.00
2023-03-19T07:37:50.464Z,704.00
2023-03-19T07:38:50.457Z,703.00
2023-03-19T07:39:50.460Z,701.00
2023-03-19T07:41:01.538Z,702.00
2023-03-19T07:41:50.488Z,705.00
2023-03-19T07:42:50.418Z,705.00
2023-03-19T07:43:50.444Z,703.00
2023-03-19T07:44:50.402Z,703.00
2023-03-19T07:45:50.431Z,705.00
2023-03-19T07:46:49.401Z,705.00
2023-03-19T07:47:50.526Z,705.00
2023-03-19T07:48:50.378Z,706.00
2023-03-19T07:49:50.376Z,704.00
2023-03-19T07:50:50.358Z,704.00
2023-03-19T07:51:50.362Z,706.00
2023-03-19T07:52:49.402Z,708.00
2023-03-19T07:53:50.353Z,709.00
2023-03-19T07:54:50.383Z,710.00
2023-03-19T07:55:49.342Z,709.00
2023-03-19T07:56:50.320Z,708.00
2023-03-19T07:57:50.372Z,708.00
2023-03-19T07:58:49.317Z,711.00
2023-03-19T07:59:50.296Z,711.00
2023-03-19T08:00:50.288Z,711.00
2023-03-19T08:01:50.291Z,710.00
2023-03-19T08:02:50.342Z,707.00
2023-03-19T08:03:50.283Z,706.00
2023-03-19T08:04:50.348Z,707.00
2023-03-19T08:05:50.273Z,706.00
2023-03-19T08:06:50.269Z,708.00
2023-03-19T08:07:50.239Z,708.00
2023-03-19T08:08:50.241Z,709.00
2023-03-19T08:09:50.235Z,708.00
2023-03-19T08:10:50.228Z,708.00
2023-03-19T08:11:50.219Z,710.00
2023-03-19T08:12:50.211Z,710.00
2023-03-19T08:13:50.242Z,706.00
2023-03-19T08:14:50.210Z,706.00
2023-03-19T08:15:50.188Z,705.00
2023-03-19T08:16:50.238Z,705.00
2023-03-19T08:17:49.195Z,707.00
2023-03-19T08:18:52.321Z,705.00
2023-03-19T08:19:50.172Z,705.00
2023-03-19T08:20:50.166Z,707.00
2023-03-19T08:21:49.150Z,707.00
2023-03-19T08:22:50.143Z,707.00
2023-03-19T08:23:50.128Z,707.00
2023-03-19T08:24:50.132Z,708.00
2023-03-19T08:25:50.126Z,706.00
2023-03-19T08:26:49.120Z,705.00
2023-03-19T08:27:49.112Z,704.00
2023-03-19T08:28:49.101Z,705.00
2023-03-19T08:29:50.112Z,707.00
2023-03-19T08:30:50.120Z,707.00
2023-03-19T08:31:50.072Z,706.00
2023-03-19T08:32:50.165Z,706.00
2023-03-19T08:33:50.082Z,708.00
2023-03-19T08:34:50.061Z,709.00
2023-03-19T08:35:49.097Z,707.00
2023-03-19T08:36:49.070Z,709.00
2023-03-19T08:37:50.051Z,713.00
2023-03-19T08:38:50.028Z,712.00
2023-03-19T08:39:50.030Z,710.00
2023-03-19T08:40:50.029Z,710.00
2023-03-19T08:41:50.015Z,708.00
2023-03-19T08:42:49.070Z,710.00
2023-03-19T08:43:50.033Z,709.00
2023-03-19T08:44:50.004Z,712.00
2023-03-19T08:45:50.036Z,713.00
2023-03-19T08:46:49.971Z,717.00
2023-03-19T08:47:49.974Z,716.00
2023-03-19T08:48:50.004Z,714.00
2023-03-19T08:49:49.958Z,715.00
2023-03-19T08:50:49.940Z,712.00
2023-03-19T08:51:49.944Z,712.00
2023-03-19T08:52:48.925Z,711.00
2023-03-19T08:53:49.976Z,711.00
2023-03-19T08:54:49.919Z,711.00
2023-03-19T08:55:49.912Z,712.00
2023-03-19T08:56:49.905Z,714.00
2023-03-19T08:57:49.888Z,715.00
2023-03-19T08:58:49.914Z,714.00
2023-03-19T08:59:49.898Z,715.00
2023-03-19T09:00:49.872Z,713.00
2023-03-19T09:01:49.944Z,710.00
2023-03-19T09:02:49.866Z,708.00
2023-03-19T09:03:49.881Z,710.00
2023-03-19T09:04:49.889Z,709.00
2023-03-19T09:05:48.840Z,708.00
2023-03-19T09:06:48.842Z,709.00
2023-03-19T09:07:49.845Z,708.00
2023-03-19T09:08:49.856Z,707.00
2023-03-19T09:09:49.828Z,706.00
2023-03-19T09:10:51.429Z,704.00
2023-03-19T09:11:50.028Z,701.00
2023-03-19T09:12:50.056Z,701.00
2023-03-19T09:13:50.122Z,699.00
2023-03-19T09:14:49.144Z,700.00
2023-03-19T09:15:49.214Z,698.00
2023-03-19T09:16:50.197Z,700.00
2023-03-19T09:17:50.277Z,699.00
2023-03-19T09:18:49.335Z,701.00
2023-03-19T09:19:50.391Z,701.00
2023-03-19T09:20:50.804Z,700.00
2023-03-19T09:21:50.413Z,700.00
2023-03-19T09:22:50.441Z,695.00
2023-03-19T09:23:50.478Z,693.00
2023-03-19T09:24:50.533Z,692.00
2023-03-19T09:25:50.662Z,691.00
2023-03-19T09:26:50.590Z,691.00
2023-03-19T09:27:49.633Z,692.00
2023-03-19T09:28:50.653Z,693.00
2023-03-19T09:29:50.709Z,694.00
2023-03-19T09:30:50.788Z,693.00
2023-03-19T09:31:49.858Z,693.00
2023-03-19T09:32:50.837Z,691.00
2023-03-19T09:33:50.881Z,693.00
2023-03-19T09:34:50.895Z,694.00
2023-03-19T09:35:51.069Z,693.00
2023-03-19T09:36:50.970Z,694.00
2023-03-19T09:37:52.147Z,693.00
2023-03-19T09:38:51.019Z,694.00
2023-03-19T09:39:51.147Z,694.00
2023-03-19T09:40:50.101Z,696.00
2023-03-19T09:41:51.197Z,695.00
2023-03-19T09:42:51.210Z,697.00
2023-03-19T09:43:51.225Z,696.00
2023-03-19T09:44:51.494Z,695.00
2023-03-19T09:45:51.325Z,695.00
2023-03-19T09:46:51.412Z,694.00
2023-03-19T09:47:51.406Z,694.00
2023-03-19T09:48:51.452Z,694.00
2023-03-19T09:49:51.509Z,696.00
2023-03-19T09:50:51.526Z,697.00
2023-03-19T09:51:51.731Z,697.00
2023-03-19T09:52:51.569Z,698.00
2023-03-19T09:53:50.601Z,697.00
2023-03-19T09:54:51.725Z,696.00
2023-03-19T09:55:51.694Z,695.00
2023-03-19T09:56:50.823Z,693.00
2023-03-19T09:57:51.750Z,695.00
2023-03-19T09:58:51.789Z,692.00
2023-03-19T09:59:51.817Z,688.00
2023-03-19T10:00:51.831Z,689.00
2023-03-19T10:01:51.001Z,689.00
2023-03-19T10:02:51.912Z,689.00
2023-03-19T10:03:51.953Z,690.00
2023-03-19T10:04:50.971Z,688.00
2023-03-19T10:05:52.040Z,688.00
2023-03-19T10:06:52.066Z,689.00
2023-03-19T10:07:52.092Z,690.00
2023-03-19T10:08:52.165Z,690.00
2023-03-19T10:09:52.208Z,693.00
2023-03-19T10:10:52.199Z,692.00
2023-03-19T10:11:52.252Z,691.00
2023-03-19T10:12:52.292Z,693.00
2023-03-19T10:13:52.326Z,691.00
2023-03-19T10:14:51.349Z,690.00
2023-03-19T10:15:52.377Z,690.00
2023-03-19T10:16:52.408Z,691.00
2023-03-19T10:17:52.426Z,689.00
2023-03-19T10:18:53.058Z,689.00
2023-03-19T10:19:51.536Z,688.00
2023-03-19T10:20:52.535Z,685.00
2023-03-19T10:21:52.583Z,686.00
2023-03-19T10:22:51.588Z,688.00
2023-03-19T10:23:51.618Z,689.00
2023-03-19T10:24:51.679Z,691.00
2023-03-19T10:25:51.726Z,694.00
2023-03-19T10:26:52.760Z,692.00
2023-03-19T10:27:52.776Z,691.00
2023-03-19T10:28:52.807Z,688.00
2023-03-19T10:29:52.860Z,689.00
2023-03-19T10:30:51.881Z,689.00
2023-03-19T10:31:53.055Z,686.00
2023-03-19T10:32:52.011Z,689.00
2023-03-19T10:33:52.977Z,690.00
2023-03-19T10:34:53.052Z,691.00
2023-03-19T10:35:53.114Z,692.00
2023-03-19T10:36:52.075Z,690.00
2023-03-19T10:37:53.132Z,692.00
2023-03-19T10:38:52.148Z,694.00
2023-03-19T10:39:52.174Z,694.00
2023-03-19T10:40:53.187Z,689.00
2023-03-19T10:41:53.218Z,688.00
2023-03-19T10:42:53.251Z,688.00
2023-03-19T10:43:53.326Z,687.00
2023-03-19T10:44:53.339Z,685.00
2023-03-19T10:45:53.428Z,686.00
2023-03-19T10:46:52.403Z,685.00
2023-03-19T10:47:53.446Z,684.00
2023-03-19T10:48:52.467Z,685.00
2023-03-19T10:49:53.518Z,684.00
2023-03-19T10:50:52.580Z,686.00
2023-03-19T10:51:53.572Z,685.00
2023-03-19T10:52:53.601Z,684.00
2023-03-19T10:53:53.668Z,684.00
2023-03-19T10:54:54.978Z,683.00
2023-03-19T10:55:53.908Z,684.00
2023-03-19T10:56:53.794Z,684.00
2023-03-19T10:57:53.822Z,685.00
2023-03-19T10:58:53.850Z,684.00
2023-03-19T10:59:53.892Z,684.00
2023-03-19T11:00:52.921Z,684.00
2023-03-19T11:01:53.946Z,685.00
2023-03-19T11:02:53.976Z,685.00
2023-03-19T11:03:54.050Z,686.00
2023-03-19T11:04:53.058Z,686.00
2023-03-19T11:05:54.093Z,686.00
2023-03-19T11:06:54.146Z,686.00
2023-03-19T11:07:53.182Z,685.00
2023-03-19T11:08:54.225Z,685.00
2023-03-19T11:09:53.309Z,686.00
2023-03-19T11:10:54.324Z,684.00
2023-03-19T11:11:54.337Z,687.00
2023-03-19T11:12:53.364Z,690.00
2023-03-19T11:13:54.388Z,690.00
2023-03-19T11:14:54.447Z,688.00
2023-03-19T11:15:54.477Z,690.00
2023-03-19T11:16:54.729Z,690.00
2023-03-19T11:17:53.546Z,690.00
2023-03-19T11:18:53.575Z,692.00
2023-03-19T11:19:54.636Z,688.00
2023-03-19T11:20:54.658Z,686.00
2023-03-19T11:21:54.695Z,687.00
2023-03-19T11:22:54.740Z,689.00
2023-03-19T11:23:54.789Z,689.00
2023-03-19T11:24:54.859Z,688.00
2023-03-19T11:25:54.866Z,690.00
2023-03-19T11:26:54.919Z,690.00
2023-03-19T11:27:54.959Z,689.00
2023-03-19T11:28:55.010Z,690.00
2023-03-19T11:29:55.055Z,691.00
2023-03-19T11:30:55.084Z,690.00
2023-03-19T11:31:54.267Z,694.00
2023-03-19T11:32:55.239Z,691.00
2023-03-19T11:33:55.219Z,692.00
2023-03-19T11:34:55.256Z,692.00
2023-03-19T11:35:55.333Z,691.00
2023-03-19T11:36:54.466Z,693.00
2023-03-19T11:37:54.406Z,693.00
2023-03-19T11:38:54.463Z,691.00
2023-03-19T11:39:55.496Z,690.00
2023-03-19T11:40:55.583Z,690.00
2023-03-19T11:41:55.609Z,691.00
2023-03-19T11:42:55.653Z,689.00
2023-03-19T11:43:55.719Z,686.00
2023-03-19T11:44:55.771Z,683.00
2023-03-19T11:45:54.872Z,682.00
2023-03-19T11:46:55.879Z,683.00
2023-03-19T11:47:55.916Z,682.00
2023-03-19T11:48:55.961Z,683.00
2023-03-19T11:49:56.019Z,681.00
2023-03-19T11:50:56.094Z,680.00
2023-03-19T11:51:56.145Z,680.00
2023-03-19T11:52:56.183Z,680.00
2023-03-19T11:53:55.271Z,680.00
2023-03-19T11:54:56.321Z,681.00
2023-03-19T11:55:56.367Z,681.00
2023-03-19T11:56:56.437Z,680.00
2023-03-19T11:57:56.458Z,683.00
2023-03-19T11:58:56.496Z,685.00
2023-03-19T11:59:56.542Z,687.00
2023-03-19T12:00:55.580Z,690.00
2023-03-19T12:01:56.635Z,692.00
2023-03-19T12:02:56.662Z,691.00
2023-03-19T12:03:56.740Z,690.00
2023-03-19T12:04:56.772Z,688.00
2023-03-19T12:05:56.810Z,691.00
2023-03-19T12:06:56.864Z,691.00
2023-03-19T12:07:56.900Z,691.00
2023-03-19T12:08:56.941Z,693.00
2023-03-19T12:09:57.012Z,694.00
2023-03-19T12:10:57.068Z,693.00
2023-03-19T12:11:56.095Z,692.00
2023-03-19T12:12:57.169Z,691.00
2023-03-19T12:13:57.212Z,691.00
2023-03-19T12:14:56.285Z,691.00
2023-03-19T12:15:57.356Z,691.00
2023-03-19T12:16:57.439Z,692.00
2023-03-19T12:17:57.458Z,694.00
2023-03-19T12:18:56.522Z,694.00
2023-03-19T12:19:57.576Z,693.00
2023-03-19T12:20:57.634Z,691.00
2023-03-19T12:21:57.733Z,690.00
2023-03-19T12:22:57.822Z,688.00
2023-03-19T12:23:57.823Z,687.00
2023-03-19T12:24:57.889Z,685.00
2023-03-19T12:25:57.956Z,689.00
2023-03-19T12:26:58.037Z,690.00
2023-03-19T12:27:58.085Z,691.00
2023-03-19T12:28:58.161Z,689.00